createdAt,value
2019-02-20T00:01:31.322Z,19.47
2019-02-20T00:06:39.058Z,18.23
2019-02-20T00:11:46.987Z,20.19
2019-02-20T00:16:54.666Z,18.97
2019-02-20T00:22:02.390Z,18.64
2019-02-20T00:27:10.041Z,18.77
2019-02-20T00:32:17.750Z,19.66
2019-02-20T00:37:25.457Z,19.57
2019-02-20T00:42:33.317Z,18.41
2019-02-20T00:47:41.077Z,18.34
2019-02-20T00:52:50.129Z,17.93
2019-02-20T00:57:56.162Z,17.79
2019-02-20T01:03:03.754Z,18.99
2019-02-20T01:08:12.261Z,17.23
2019-02-20T01:13:19.850Z,20.57
2019-02-20T01:18:27.759Z,24.96
2019-02-20T01:23:36.419Z,18.14
2019-02-20T01:28:44.086Z,16.92
2019-02-20T01:33:51.873Z,16.78
2019-02-20T01:38:59.550Z,15.86
2019-02-20T01:44:08.153Z,15.44
2019-02-20T01:49:15.742Z,17.54
2019-02-20T01:54:23.506Z,16.09
2019-02-20T01:59:31.073Z,17.73
2019-02-20T02:04:38.863Z,17.21
2019-02-20T02:09:46.445Z,16.75
2019-02-20T02:14:54.173Z,17.52
2019-02-20T02:20:01.781Z,18.46
2019-02-20T02:25:09.489Z,17.38
2019-02-20T02:30:17.114Z,19.03
2019-02-20T02:35:24.781Z,21.10
2019-02-20T02:40:35.571Z,19.20
2019-02-20T02:45:33.197Z,22.63
2019-02-20T02:50:40.822Z,19.75
2019-02-20T02:55:49.396Z,17.87
2019-02-20T03:00:57.165Z,17.77
2019-02-20T03:06:04.778Z,17.24
2019-02-20T03:11:12.773Z,19.19
2019-02-20T03:16:20.392Z,20.92
2019-02-20T03:21:28.511Z,21.75
2019-02-20T03:26:36.228Z,15.93
2019-02-20T03:31:44.049Z,17.78
2019-02-20T03:36:52.040Z,17.83
2019-02-20T03:41:59.700Z,18.38
2019-02-20T03:47:07.394Z,19.24
2019-02-20T03:52:15.013Z,17.87
2019-02-20T03:57:22.674Z,17.29
2019-02-20T04:02:30.853Z,17.66
2019-02-20T04:07:39.102Z,17.94
2019-02-20T04:12:46.845Z,17.53
2019-02-20T04:17:54.570Z,17.25
2019-02-20T04:23:02.529Z,18.44
2019-02-20T04:28:11.325Z,17.79
2019-02-20T04:33:18.954Z,16.39
2019-02-20T04:38:26.673Z,17.90
2019-02-20T04:43:34.289Z,17.31
2019-02-20T04:48:41.976Z,18.15
2019-02-20T04:53:49.594Z,15.60
2019-02-20T04:58:57.345Z,16.64
2019-02-20T05:04:05.007Z,15.52
2019-02-20T05:09:12.766Z,19.01
2019-02-20T05:14:20.413Z,14.74
2019-02-20T05:19:28.234Z,16.79
2019-02-20T05:24:35.938Z,16.93
2019-02-20T05:29:43.569Z,16.84
2019-02-20T05:34:51.402Z,16.35
2019-02-20T05:39:59.463Z,16.75
2019-02-20T05:45:07.124Z,30.24
2019-02-20T05:50:14.963Z,16.74
2019-02-20T05:55:23.769Z,12.55
2019-02-20T06:00:31.665Z,16.71
2019-02-20T06:05:39.283Z,17.02
2019-02-20T06:10:47.219Z,18.72
2019-02-20T06:15:54.930Z,17.04
2019-02-20T06:21:02.647Z,16.74
2019-02-20T06:26:10.263Z,17.49
2019-02-20T06:31:17.957Z,15.83
2019-02-20T06:36:25.585Z,17.26
2019-02-20T06:41:38.970Z,17.73
2019-02-20T06:46:40.627Z,16.89
2019-02-20T06:51:48.398Z,19.63
2019-02-20T06:56:56.982Z,15.03
2019-02-20T07:02:04.804Z,19.21
2019-02-20T07:07:12.479Z,19.27
2019-02-20T07:12:20.103Z,20.17
2019-02-20T07:17:27.706Z,20.42
2019-02-20T07:22:35.469Z,18.61
2019-02-20T07:27:43.126Z,19.96
2019-02-20T07:32:51.874Z,20.63
2019-02-20T07:37:59.552Z,21.11
2019-02-20T07:43:07.336Z,21.33
2019-02-20T07:48:14.934Z,20.35
2019-02-20T07:53:22.690Z,24.40
2019-02-20T07:58:30.297Z,21.17
2019-02-20T08:03:38.101Z,27.29
2019-02-20T08:08:45.936Z,28.66
2019-02-20T08:13:53.741Z,24.48
2019-02-20T08:19:01.437Z,22.65
2019-02-20T08:24:09.194Z,24.38
2019-02-20T08:29:16.842Z,26.51
2019-02-20T08:34:25.546Z,24.10
2019-02-20T08:39:33.058Z,26.52
2019-02-20T08:44:40.838Z,24.08
2019-02-20T08:49:48.491Z,23.99
2019-02-20T08:54:56.286Z,24.90
2019-02-20T09:00:04.003Z,26.23
2019-02-20T09:05:11.791Z,27.28
2019-02-20T09:10:19.463Z,23.93
2019-02-20T09:15:27.243Z,23.87
2019-02-20T09:20:34.878Z,28.92
2019-02-20T09:25:42.745Z,26.15
2019-02-20T09:30:50.456Z,24.34
2019-02-20T09:35:58.038Z,24.36
2019-02-20T09:41:05.641Z,23.96
2019-02-20T09:46:13.381Z,23.63
2019-02-20T09:51:21.113Z,23.61
2019-02-20T09:56:28.737Z,27.55
2019-02-20T10:01:36.325Z,23.79
2019-02-20T10:06:44.716Z,25.12
2019-02-20T10:11:51.225Z,26.43
2019-02-20T10:16:59.002Z,22.97
2019-02-20T10:22:06.637Z,21.39
2019-02-20T10:27:14.234Z,20.33
2019-02-20T10:32:21.887Z,23.45
2019-02-20T10:37:29.565Z,20.09
2019-02-20T10:42:37.195Z,22.62
2019-02-20T10:47:45.074Z,18.71
2019-02-20T10:52:52.734Z,18.88
2019-02-20T10:58:00.330Z,16.80
2019-02-20T11:03:08.089Z,18.15
2019-02-20T11:08:15.827Z,14.92
2019-02-20T11:13:23.569Z,14.91
2019-02-20T11:18:31.346Z,13.05
2019-02-20T11:23:38.962Z,16.48
2019-02-20T11:28:46.867Z,13.51
2019-02-20T11:33:54.501Z,12.95
2019-02-20T11:39:02.147Z,13.13
2019-02-20T11:44:09.847Z,13.43
2019-02-20T11:49:17.563Z,14.48
2019-02-20T11:54:25.189Z,12.80
2019-02-20T11:59:33.038Z,12.57
2019-02-20T12:04:40.705Z,11.95
2019-02-20T12:09:48.614Z,13.01
2019-02-20T12:14:57.149Z,13.78
2019-02-20T12:20:04.973Z,12.34
2019-02-20T12:25:12.582Z,10.36
2019-02-20T12:30:20.418Z,10.97
2019-02-20T12:35:28.014Z,10.15
2019-02-20T12:40:35.702Z,10.79
2019-02-20T12:45:43.457Z,11.11
2019-02-20T12:50:51.354Z,8.14
2019-02-20T12:55:59.254Z,8.04
2019-02-20T13:01:07.069Z,7.01
2019-02-20T13:06:14.782Z,7.93
2019-02-20T13:11:22.549Z,5.77
2019-02-20T13:16:30.240Z,6.62
2019-02-20T13:21:37.938Z,7.08
2019-02-20T13:26:52.847Z,7.25
2019-02-20T13:31:52.989Z,6.66
2019-02-20T13:37:01.075Z,6.68
2019-02-20T13:42:08.753Z,5.35
2019-02-20T13:47:16.850Z,6.80
2019-02-20T13:52:24.662Z,5.03
2019-02-20T13:57:32.319Z,7.89
2019-02-20T14:02:39.974Z,5.41
2019-02-20T14:07:48.702Z,8.19
2019-02-20T14:12:56.403Z,5.81
2019-02-20T14:18:04.060Z,7.31
2019-02-20T14:23:11.758Z,6.51
2019-02-20T14:28:20.284Z,5.22
2019-02-20T14:33:28.069Z,4.41
2019-02-20T14:38:35.719Z,5.98
2019-02-20T14:43:43.438Z,5.08
2019-02-20T14:48:51.154Z,5.18
2019-02-20T14:53:58.911Z,5.18
2019-02-20T14:59:06.658Z,7.37
2019-02-20T15:04:14.297Z,7.74
2019-02-20T15:09:21.926Z,4.87
2019-02-20T15:14:29.721Z,6.27
2019-02-20T15:19:37.379Z,5.24
2019-02-20T15:24:45.085Z,7.14
2019-02-20T15:29:52.907Z,5.81
2019-02-20T15:35:30.302Z,7.74
2019-02-20T15:40:37.899Z,8.06
2019-02-20T15:45:45.525Z,6.75
2019-02-20T15:50:53.409Z,6.76
2019-02-20T15:56:01.169Z,8.00
2019-02-20T16:01:08.878Z,8.19
2019-02-20T16:06:16.582Z,5.55
2019-02-20T16:11:24.213Z,6.14
2019-02-20T16:16:31.872Z,6.81
2019-02-20T16:21:39.550Z,5.99
2019-02-20T16:26:47.174Z,6.16
2019-02-20T16:31:54.738Z,7.44
2019-02-20T16:37:02.609Z,8.20
2019-02-20T16:42:10.298Z,8.20
2019-02-20T16:47:18.056Z,8.18
2019-02-20T16:52:25.770Z,8.73
2019-02-20T16:57:33.731Z,9.71
2019-02-20T17:02:41.346Z,6.97
2019-02-20T17:07:49.113Z,8.69
2019-02-20T17:12:56.799Z,8.48
2019-02-20T17:18:04.621Z,8.51
2019-02-20T17:23:12.387Z,9.23
2019-02-20T17:28:19.997Z,18.27
2019-02-20T17:33:27.814Z,8.79
2019-02-20T17:38:35.550Z,9.93
2019-02-20T17:43:43.181Z,9.14
2019-02-20T17:48:50.967Z,9.05
2019-02-20T17:53:58.605Z,9.02
2019-02-20T17:59:06.388Z,10.74
2019-02-20T18:04:13.986Z,9.31
2019-02-20T18:09:21.728Z,9.72
2019-02-20T18:14:29.369Z,11.39
2019-02-20T18:19:38.215Z,14.31
2019-02-20T18:24:45.911Z,11.09
2019-02-20T18:29:53.600Z,9.87
2019-02-20T18:35:01.267Z,10.09
2019-02-20T18:40:09.047Z,12.01
2019-02-20T18:45:16.633Z,9.94
2019-02-20T18:50:24.508Z,11.07
2019-02-20T18:55:32.387Z,10.19
2019-02-20T19:00:40.170Z,11.54
2019-02-20T19:05:47.868Z,10.62
2019-02-20T19:10:55.537Z,10.61
2019-02-20T19:16:04.094Z,12.59
2019-02-20T19:21:11.728Z,10.63
2019-02-20T19:26:19.454Z,10.96
2019-02-20T19:31:27.407Z,9.60
2019-02-20T19:36:35.347Z,9.78
2019-02-20T19:41:45.825Z,10.65
2019-02-20T19:46:45.068Z,9.75
2019-02-20T19:51:50.934Z,10.87
2019-02-20T19:56:58.618Z,11.68
2019-02-20T20:02:06.513Z,12.06
2019-02-20T20:07:14.163Z,10.85
2019-02-20T20:12:22.136Z,10.38
2019-02-20T20:17:30.230Z,9.82
2019-02-20T20:22:38.086Z,8.86
2019-02-20T20:27:46.014Z,9.90
2019-02-20T20:32:56.119Z,10.93
2019-02-20T20:38:00.780Z,10.37
2019-02-20T20:43:08.470Z,11.62
2019-02-20T20:48:16.055Z,10.25
2019-02-20T20:53:23.725Z,11.94
2019-02-20T20:58:31.570Z,11.10
2019-02-20T21:03:40.125Z,10.19
2019-02-20T21:08:47.789Z,10.42
2019-02-20T21:13:55.513Z,9.61
2019-02-20T21:19:03.304Z,12.49
2019-02-20T21:24:11.160Z,10.31
2019-02-20T21:29:28.049Z,10.35
2019-02-20T21:34:26.365Z,10.41
2019-02-20T21:39:34.180Z,8.88
2019-02-20T21:44:42.168Z,8.99
2019-02-20T21:49:49.667Z,10.80
2019-02-20T21:54:57.392Z,11.21
2019-02-20T22:00:05.123Z,9.91
2019-02-20T22:05:12.938Z,10.10
2019-02-20T22:10:20.681Z,11.47
2019-02-20T22:15:28.368Z,9.95
2019-02-20T22:20:36.249Z,9.40
2019-02-20T22:25:43.882Z,10.50
2019-02-20T22:30:51.638Z,9.61
2019-02-20T22:35:59.744Z,9.54
2019-02-20T22:41:07.439Z,10.85
2019-02-20T22:46:15.168Z,10.30
2019-02-20T22:51:22.802Z,10.40
2019-02-20T22:56:30.692Z,10.86
2019-02-20T23:01:38.505Z,10.14
2019-02-20T23:06:46.313Z,10.73
2019-02-20T23:11:53.986Z,10.35
2019-02-20T23:17:01.724Z,11.42
2019-02-20T23:22:09.289Z,11.25
2019-02-20T23:27:17.073Z,10.59
2019-02-20T23:32:24.668Z,9.27
2019-02-20T23:37:32.435Z,9.27
2019-02-20T23:42:40.079Z,18.75
2019-02-20T23:47:47.823Z,9.37
2019-02-20T23:52:55.516Z,10.44
2019-02-20T23:58:03.198Z,8.58
